sensor_id;sensor_type;location;lat;lon;timestamp;P1;durP1;ratioP1;P2;durP2;ratioP2
19358;SDS011;9815;52.334;20.890;2023-01-31T00:01:50;18.33;;;8.50;;
19358;SDS011;9815;52.334;20.890;2023-01-31T00:04:18;16.63;;;7.67;;
19358;SDS011;9815;52.334;20.890;2023-01-31T00:06:47;20.43;;;8.40;;
19358;SDS011;9815;52.334;20.890;2023-01-31T00:09:17;16.10;;;8.07;;
19358;SDS011;9815;52.334;20.890;2023-01-31T00:11:45;17.17;;;8.43;;
19358;SDS011;9815;52.334;20.890;2023-01-31T00:14:15;22.93;;;8.37;;
19358;SDS011;9815;52.334;20.890;2023-01-31T00:16:46;23.97;;;7.73;;
19358;SDS011;9815;52.334;20.890;2023-01-31T00:19:14;19.00;;;7.50;;
19358;SDS011;9815;52.334;20.890;2023-01-31T00:21:42;21.97;;;9.03;;
19358;SDS011;9815;52.334;20.890;2023-01-31T00:24:12;21.47;;;8.53;;
19358;SDS011;9815;52.334;20.890;2023-01-31T00:26:41;18.83;;;7.97;;
19358;SDS011;9815;52.334;20.890;2023-01-31T00:29:09;20.07;;;7.63;;
19358;SDS011;9815;52.334;20.890;2023-01-31T00:31:37;10.87;;;6.20;;
19358;SDS011;9815;52.334;20.890;2023-01-31T00:34:05;14.83;;;6.40;;
19358;SDS011;9815;52.334;20.890;2023-01-31T00:36:33;14.43;;;7.10;;
19358;SDS011;9815;52.334;20.890;2023-01-31T00:39:04;20.57;;;7.23;;
19358;SDS011;9815;52.334;20.890;2023-01-31T00:41:35;13.70;;;7.07;;
19358;SDS011;9815;52.334;20.890;2023-01-31T00:44:04;19.40;;;6.70;;
19358;SDS011;9815;52.334;20.890;2023-01-31T00:46:33;17.77;;;6.53;;
19358;SDS011;9815;52.334;20.890;2023-01-31T00:49:02;14.60;;;6.17;;
19358;SDS011;9815;52.334;20.890;2023-01-31T00:51:30;15.80;;;7.40;;
19358;SDS011;9815;52.334;20.890;2023-01-31T00:53:58;15.63;;;7.27;;
19358;SDS011;9815;52.334;20.890;2023-01-31T00:56:25;19.23;;;6.37;;
19358;SDS011;9815;52.334;20.890;2023-01-31T00:58:55;15.57;;;6.97;;
19358;SDS011;9815;52.334;20.890;2023-01-31T01:01:24;19.70;;;7.27;;
19358;SDS011;9815;52.334;20.890;2023-01-31T01:03:54;13.90;;;6.30;;
19358;SDS011;9815;52.334;20.890;2023-01-31T01:06:23;17.63;;;6.37;;
19358;SDS011;9815;52.334;20.890;2023-01-31T01:08:52;15.13;;;6.70;;
19358;SDS011;9815;52.334;20.890;2023-01-31T01:11:21;15.03;;;6.30;;
19358;SDS011;9815;52.334;20.890;2023-01-31T01:13:50;19.40;;;6.70;;
19358;SDS011;9815;52.334;20.890;2023-01-31T01:16:21;13.83;;;6.20;;
19358;SDS011;9815;52.334;20.890;2023-01-31T01:18:50;13.43;;;6.17;;
19358;SDS011;9815;52.334;20.890;2023-01-31T01:21:20;20.80;;;6.50;;
19358;SDS011;9815;52.334;20.890;2023-01-31T01:23:49;13.00;;;6.30;;
19358;SDS011;9815;52.334;20.890;2023-01-31T01:26:20;15.63;;;6.57;;
19358;SDS011;9815;52.334;20.890;2023-01-31T01:28:50;14.13;;;6.07;;
19358;SDS011;9815;52.334;20.890;2023-01-31T01:31:21;14.00;;;6.30;;
19358;SDS011;9815;52.334;20.890;2023-01-31T01:33:56;15.43;;;6.50;;
19358;SDS011;9815;52.334;20.890;2023-01-31T01:36:25;12.77;;;6.20;;
19358;SDS011;9815;52.334;20.890;2023-01-31T01:38:54;16.50;;;6.47;;
19358;SDS011;9815;52.334;20.890;2023-01-31T01:41:22;21.80;;;6.93;;
19358;SDS011;9815;52.334;20.890;2023-01-31T01:43:51;22.20;;;6.90;;
19358;SDS011;9815;52.334;20.890;2023-01-31T01:46:23;14.30;;;5.67;;
19358;SDS011;9815;52.334;20.890;2023-01-31T01:48:57;13.63;;;5.90;;
19358;SDS011;9815;52.334;20.890;2023-01-31T01:51:27;15.40;;;5.73;;
19358;SDS011;9815;52.334;20.890;2023-01-31T01:53:58;16.57;;;6.07;;
19358;SDS011;9815;52.334;20.890;2023-01-31T01:56:29;14.10;;;6.03;;
19358;SDS011;9815;52.334;20.890;2023-01-31T01:59:04;12.00;;;6.33;;
19358;SDS011;9815;52.334;20.890;2023-01-31T02:01:37;15.10;;;5.40;;
19358;SDS011;9815;52.334;20.890;2023-01-31T02:04:08;19.17;;;6.27;;
19358;SDS011;9815;52.334;20.890;2023-01-31T02:06:41;20.30;;;6.73;;
19358;SDS011;9815;52.334;20.890;2023-01-31T02:09:11;17.73;;;6.77;;
19358;SDS011;9815;52.334;20.890;2023-01-31T02:11:45;13.70;;;6.30;;
19358;SDS011;9815;52.334;20.890;2023-01-31T02:14:13;19.23;;;6.43;;
19358;SDS011;9815;52.334;20.890;2023-01-31T02:16:44;15.53;;;5.73;;
19358;SDS011;9815;52.334;20.890;2023-01-31T02:19:14;14.60;;;5.47;;
19358;SDS011;9815;52.334;20.890;2023-01-31T02:22:04;11.37;;;5.97;;
19358;SDS011;9815;52.334;20.890;2023-01-31T02:24:53;20.37;;;6.87;;
19358;SDS011;9815;52.334;20.890;2023-01-31T02:28:13;18.27;;;6.03;;
19358;SDS011;9815;52.334;20.890;2023-01-31T02:31:14;21.57;;;6.60;;
19358;SDS011;9815;52.334;20.890;2023-01-31T02:34:09;13.63;;;6.40;;
19358;SDS011;9815;52.334;20.890;2023-01-31T02:36:46;18.17;;;6.57;;
19358;SDS011;9815;52.334;20.890;2023-01-31T02:42:12;19.17;;;6.70;;
19358;SDS011;9815;52.334;20.890;2023-01-31T02:44:49;13.53;;;6.13;;
19358;SDS011;9815;52.334;20.890;2023-01-31T02:47:27;20.50;;;6.80;;
19358;SDS011;9815;52.334;20.890;2023-01-31T02:50:06;16.47;;;6.23;;
19358;SDS011;9815;52.334;20.890;2023-01-31T02:52:43;18.40;;;6.37;;
19358;SDS011;9815;52.334;20.890;2023-01-31T02:55:16;15.00;;;6.33;;
19358;SDS011;9815;52.334;20.890;2023-01-31T02:58:06;14.43;;;5.47;;
19358;SDS011;9815;52.334;20.890;2023-01-31T03:00:37;16.13;;;6.40;;
19358;SDS011;9815;52.334;20.890;2023-01-31T03:03:12;14.47;;;5.80;;
19358;SDS011;9815;52.334;20.890;2023-01-31T03:06:09;18.17;;;5.20;;
19358;SDS011;9815;52.334;20.890;2023-01-31T03:09:01;23.03;;;5.17;;
19358;SDS011;9815;52.334;20.890;2023-01-31T03:11:35;14.17;;;5.30;;
19358;SDS011;9815;52.334;20.890;2023-01-31T03:14:13;13.50;;;5.00;;
19358;SDS011;9815;52.334;20.890;2023-01-31T03:16:49;23.73;;;5.40;;
19358;SDS011;9815;52.334;20.890;2023-01-31T03:19:42;19.23;;;5.60;;
19358;SDS011;9815;52.334;20.890;2023-01-31T03:22:19;15.67;;;5.03;;
19358;SDS011;9815;52.334;20.890;2023-01-31T03:24:52;18.97;;;4.67;;
19358;SDS011;9815;52.334;20.890;2023-01-31T03:27:21;17.17;;;4.90;;
19358;SDS011;9815;52.334;20.890;2023-01-31T03:29:53;20.63;;;4.13;;
19358;SDS011;9815;52.334;20.890;2023-01-31T03:32:29;13.20;;;3.90;;
19358;SDS011;9815;52.334;20.890;2023-01-31T03:35:00;11.50;;;4.60;;
19358;SDS011;9815;52.334;20.890;2023-01-31T03:37:32;18.23;;;4.37;;
19358;SDS011;9815;52.334;20.890;2023-01-31T03:40:11;16.03;;;4.73;;
19358;SDS011;9815;52.334;20.890;2023-01-31T03:42:44;14.77;;;3.70;;
19358;SDS011;9815;52.334;20.890;2023-01-31T03:45:19;15.47;;;4.37;;
19358;SDS011;9815;52.334;20.890;2023-01-31T03:47:52;14.07;;;3.80;;
19358;SDS011;9815;52.334;20.890;2023-01-31T03:50:24;18.23;;;4.07;;
19358;SDS011;9815;52.334;20.890;2023-01-31T03:52:57;14.17;;;4.40;;
19358;SDS011;9815;52.334;20.890;2023-01-31T03:55:32;18.17;;;3.93;;
19358;SDS011;9815;52.334;20.890;2023-01-31T03:58:03;10.17;;;3.33;;
19358;SDS011;9815;52.334;20.890;2023-01-31T04:00:34;14.93;;;4.33;;
19358;SDS011;9815;52.334;20.890;2023-01-31T04:03:06;16.10;;;3.70;;
19358;SDS011;9815;52.334;20.890;2023-01-31T04:05:41;17.77;;;4.10;;
19358;SDS011;9815;52.334;20.890;2023-01-31T04:08:11;15.23;;;3.60;;
19358;SDS011;9815;52.334;20.890;2023-01-31T04:10:43;19.87;;;4.00;;
19358;SDS011;9815;52.334;20.890;2023-01-31T04:13:11;14.60;;;3.40;;
19358;SDS011;9815;52.334;20.890;2023-01-31T04:15:39;9.80;;;3.27;;
19358;SDS011;9815;52.334;20.890;2023-01-31T04:18:07;11.43;;;3.50;;
19358;SDS011;9815;52.334;20.890;2023-01-31T04:20:35;16.97;;;3.63;;
19358;SDS011;9815;52.334;20.890;2023-01-31T04:23:03;18.00;;;3.77;;
19358;SDS011;9815;52.334;20.890;2023-01-31T04:25:32;22.67;;;4.37;;
19358;SDS011;9815;52.334;20.890;2023-01-31T04:28:00;19.47;;;4.27;;
19358;SDS011;9815;52.334;20.890;2023-01-31T04:30:28;9.13;;;3.63;;
19358;SDS011;9815;52.334;20.890;2023-01-31T04:32:57;11.67;;;3.20;;
19358;SDS011;9815;52.334;20.890;2023-01-31T04:35:25;18.13;;;4.03;;
19358;SDS011;9815;52.334;20.890;2023-01-31T04:37:53;13.73;;;3.67;;
19358;SDS011;9815;52.334;20.890;2023-01-31T04:40:21;10.43;;;4.00;;
19358;SDS011;9815;52.334;20.890;2023-01-31T04:42:50;15.57;;;3.43;;
19358;SDS011;9815;52.334;20.890;2023-01-31T04:45:18;15.17;;;3.30;;
19358;SDS011;9815;52.334;20.890;2023-01-31T04:47:47;15.23;;;3.30;;
19358;SDS011;9815;52.334;20.890;2023-01-31T04:50:15;14.27;;;3.53;;
19358;SDS011;9815;52.334;20.890;2023-01-31T04:52:43;15.90;;;3.60;;
19358;SDS011;9815;52.334;20.890;2023-01-31T04:55:12;14.53;;;5.27;;
19358;SDS011;9815;52.334;20.890;2023-01-31T04:57:40;16.87;;;3.93;;
19358;SDS011;9815;52.334;20.890;2023-01-31T05:00:10;21.63;;;3.77;;
19358;SDS011;9815;52.334;20.890;2023-01-31T05:02:39;18.57;;;3.63;;
19358;SDS011;9815;52.334;20.890;2023-01-31T05:05:07;16.90;;;3.90;;
19358;SDS011;9815;52.334;20.890;2023-01-31T05:07:38;20.07;;;3.17;;
19358;SDS011;9815;52.334;20.890;2023-01-31T05:10:06;16.73;;;3.80;;
19358;SDS011;9815;52.334;20.890;2023-01-31T05:12:35;13.13;;;3.40;;
19358;SDS011;9815;52.334;20.890;2023-01-31T05:15:04;14.37;;;3.80;;
19358;SDS011;9815;52.334;20.890;2023-01-31T05:17:34;20.83;;;3.70;;
19358;SDS011;9815;52.334;20.890;2023-01-31T05:20:03;12.73;;;3.60;;
19358;SDS011;9815;52.334;20.890;2023-01-31T05:22:31;20.43;;;3.73;;
19358;SDS011;9815;52.334;20.890;2023-01-31T05:24:59;14.70;;;3.40;;
19358;SDS011;9815;52.334;20.890;2023-01-31T05:27:28;20.00;;;4.03;;
19358;SDS011;9815;52.334;20.890;2023-01-31T05:29:57;17.27;;;4.03;;
19358;SDS011;9815;52.334;20.890;2023-01-31T05:32:26;20.87;;;3.63;;
19358;SDS011;9815;52.334;20.890;2023-01-31T05:34:55;21.70;;;4.27;;
19358;SDS011;9815;52.334;20.890;2023-01-31T05:37:23;14.63;;;3.40;;
19358;SDS011;9815;52.334;20.890;2023-01-31T05:39:51;20.13;;;3.60;;
19358;SDS011;9815;52.334;20.890;2023-01-31T05:42:19;16.53;;;3.53;;
19358;SDS011;9815;52.334;20.890;2023-01-31T05:44:47;12.30;;;3.23;;
19358;SDS011;9815;52.334;20.890;2023-01-31T05:47:14;15.13;;;3.33;;
19358;SDS011;9815;52.334;20.890;2023-01-31T05:49:42;26.90;;;3.47;;
19358;SDS011;9815;52.334;20.890;2023-01-31T05:52:12;12.70;;;3.17;;
19358;SDS011;9815;52.334;20.890;2023-01-31T05:54:40;19.07;;;3.37;;
19358;SDS011;9815;52.334;20.890;2023-01-31T05:57:08;22.40;;;3.90;;
19358;SDS011;9815;52.334;20.890;2023-01-31T05:59:36;11.00;;;3.50;;
19358;SDS011;9815;52.334;20.890;2023-01-31T06:02:04;18.17;;;3.23;;
19358;SDS011;9815;52.334;20.890;2023-01-31T06:04:32;11.53;;;3.47;;
19358;SDS011;9815;52.334;20.890;2023-01-31T06:07:00;15.83;;;3.50;;
19358;SDS011;9815;52.334;20.890;2023-01-31T06:09:29;17.70;;;3.20;;
19358;SDS011;9815;52.334;20.890;2023-01-31T06:11:57;8.00;;;2.97;;
19358;SDS011;9815;52.334;20.890;2023-01-31T06:14:26;18.13;;;3.67;;
19358;SDS011;9815;52.334;20.890;2023-01-31T06:16:54;16.50;;;3.67;;
19358;SDS011;9815;52.334;20.890;2023-01-31T06:19:22;14.73;;;3.30;;
19358;SDS011;9815;52.334;20.890;2023-01-31T06:21:50;12.80;;;3.17;;
19358;SDS011;9815;52.334;20.890;2023-01-31T06:24:20;12.83;;;2.83;;
19358;SDS011;9815;52.334;20.890;2023-01-31T06:26:49;12.17;;;3.30;;
19358;SDS011;9815;52.334;20.890;2023-01-31T06:29:17;21.07;;;2.93;;
19358;SDS011;9815;52.334;20.890;2023-01-31T06:31:45;18.93;;;6.23;;
19358;SDS011;9815;52.334;20.890;2023-01-31T06:34:14;18.23;;;6.17;;
19358;SDS011;9815;52.334;20.890;2023-01-31T06:36:42;19.97;;;5.73;;
19358;SDS011;9815;52.334;20.890;2023-01-31T06:39:10;12.10;;;3.90;;
19358;SDS011;9815;52.334;20.890;2023-01-31T06:41:39;13.93;;;3.30;;
19358;SDS011;9815;52.334;20.890;2023-01-31T06:44:08;8.90;;;3.10;;
19358;SDS011;9815;52.334;20.890;2023-01-31T06:46:36;11.33;;;3.10;;
19358;SDS011;9815;52.334;20.890;2023-01-31T06:49:04;12.73;;;3.83;;
19358;SDS011;9815;52.334;20.890;2023-01-31T06:51:32;13.60;;;3.70;;
19358;SDS011;9815;52.334;20.890;2023-01-31T06:54:00;15.53;;;3.80;;
19358;SDS011;9815;52.334;20.890;2023-01-31T06:56:28;15.33;;;3.50;;
19358;SDS011;9815;52.334;20.890;2023-01-31T06:58:56;11.70;;;3.90;;
19358;SDS011;9815;52.334;20.890;2023-01-31T07:01:26;12.00;;;3.20;;
19358;SDS011;9815;52.334;20.890;2023-01-31T07:03:54;14.53;;;4.10;;
19358;SDS011;9815;52.334;20.890;2023-01-31T07:06:22;11.00;;;2.70;;
19358;SDS011;9815;52.334;20.890;2023-01-31T07:08:50;9.37;;;3.43;;
19358;SDS011;9815;52.334;20.890;2023-01-31T07:11:18;16.63;;;3.60;;
19358;SDS011;9815;52.334;20.890;2023-01-31T07:13:46;11.90;;;3.43;;
19358;SDS011;9815;52.334;20.890;2023-01-31T07:16:15;19.07;;;3.70;;
19358;SDS011;9815;52.334;20.890;2023-01-31T07:18:46;16.13;;;3.80;;
19358;SDS011;9815;52.334;20.890;2023-01-31T07:21:14;13.90;;;3.53;;
19358;SDS011;9815;52.334;20.890;2023-01-31T07:23:42;11.23;;;3.30;;
19358;SDS011;9815;52.334;20.890;2023-01-31T07:26:11;10.10;;;4.03;;
19358;SDS011;9815;52.334;20.890;2023-01-31T07:28:39;14.40;;;4.03;;
19358;SDS011;9815;52.334;20.890;2023-01-31T07:31:07;19.47;;;3.63;;
19358;SDS011;9815;52.334;20.890;2023-01-31T07:33:38;11.53;;;3.43;;
19358;SDS011;9815;52.334;20.890;2023-01-31T07:36:09;17.73;;;3.30;;
19358;SDS011;9815;52.334;20.890;2023-01-31T07:38:39;8.20;;;2.87;;
19358;SDS011;9815;52.334;20.890;2023-01-31T07:41:08;15.87;;;3.10;;
19358;SDS011;9815;52.334;20.890;2023-01-31T07:43:37;11.90;;;3.47;;
19358;SDS011;9815;52.334;20.890;2023-01-31T07:46:05;15.93;;;3.03;;
19358;SDS011;9815;52.334;20.890;2023-01-31T07:48:36;9.67;;;2.90;;
19358;SDS011;9815;52.334;20.890;2023-01-31T07:51:04;11.70;;;3.27;;
19358;SDS011;9815;52.334;20.890;2023-01-31T07:53:34;8.77;;;3.40;;
19358;SDS011;9815;52.334;20.890;2023-01-31T07:56:08;12.17;;;3.43;;
19358;SDS011;9815;52.334;20.890;2023-01-31T07:58:37;12.73;;;3.63;;
19358;SDS011;9815;52.334;20.890;2023-01-31T08:01:08;16.00;;;3.90;;
19358;SDS011;9815;52.334;20.890;2023-01-31T08:03:57;11.83;;;3.23;;
19358;SDS011;9815;52.334;20.890;2023-01-31T08:06:40;12.37;;;3.17;;
19358;SDS011;9815;52.334;20.890;2023-01-31T08:09:11;13.13;;;3.57;;
19358;SDS011;9815;52.334;20.890;2023-01-31T08:11:39;10.70;;;2.90;;
19358;SDS011;9815;52.334;20.890;2023-01-31T08:14:08;9.23;;;3.30;;
19358;SDS011;9815;52.334;20.890;2023-01-31T08:16:35;13.30;;;3.27;;
19358;SDS011;9815;52.334;20.890;2023-01-31T08:19:04;9.23;;;2.73;;
19358;SDS011;9815;52.334;20.890;2023-01-31T08:21:32;15.17;;;3.00;;
19358;SDS011;9815;52.334;20.890;2023-01-31T08:24:00;9.13;;;2.70;;
19358;SDS011;9815;52.334;20.890;2023-01-31T08:26:29;7.30;;;2.77;;
19358;SDS011;9815;52.334;20.890;2023-01-31T08:28:58;10.07;;;2.87;;
19358;SDS011;9815;52.334;20.890;2023-01-31T08:31:26;12.80;;;3.03;;
19358;SDS011;9815;52.334;20.890;2023-01-31T08:33:55;12.70;;;3.03;;
19358;SDS011;9815;52.334;20.890;2023-01-31T08:36:23;12.57;;;2.77;;
19358;SDS011;9815;52.334;20.890;2023-01-31T08:38:53;11.80;;;3.00;;
19358;SDS011;9815;52.334;20.890;2023-01-31T08:41:23;10.83;;;3.33;;
19358;SDS011;9815;52.334;20.890;2023-01-31T08:43:53;13.53;;;3.00;;
19358;SDS011;9815;52.334;20.890;2023-01-31T08:46:25;6.87;;;2.90;;
19358;SDS011;9815;52.334;20.890;2023-01-31T08:48:56;11.43;;;3.10;;
19358;SDS011;9815;52.334;20.890;2023-01-31T08:51:24;7.50;;;2.50;;
19358;SDS011;9815;52.334;20.890;2023-01-31T08:53:53;10.63;;;3.60;;
19358;SDS011;9815;52.334;20.890;2023-01-31T08:56:21;9.50;;;2.53;;
19358;SDS011;9815;52.334;20.890;2023-01-31T08:58:51;8.10;;;2.13;;
19358;SDS011;9815;52.334;20.890;2023-01-31T09:01:21;11.80;;;2.97;;
19358;SDS011;9815;52.334;20.890;2023-01-31T09:03:50;8.70;;;2.70;;
19358;SDS011;9815;52.334;20.890;2023-01-31T09:06:22;11.97;;;2.87;;
19358;SDS011;9815;52.334;20.890;2023-01-31T09:08:53;17.70;;;3.27;;
19358;SDS011;9815;52.334;20.890;2023-01-31T09:11:22;15.27;;;4.73;;
19358;SDS011;9815;52.334;20.890;2023-01-31T09:13:50;14.97;;;3.80;;
19358;SDS011;9815;52.334;20.890;2023-01-31T09:16:18;9.57;;;3.33;;
19358;SDS011;9815;52.334;20.890;2023-01-31T09:18:48;9.07;;;3.00;;
19358;SDS011;9815;52.334;20.890;2023-01-31T09:21:17;12.70;;;3.07;;
19358;SDS011;9815;52.334;20.890;2023-01-31T09:23:47;12.10;;;2.97;;
19358;SDS011;9815;52.334;20.890;2023-01-31T09:26:15;15.23;;;3.03;;
19358;SDS011;9815;52.334;20.890;2023-01-31T09:28:43;11.80;;;3.70;;
19358;SDS011;9815;52.334;20.890;2023-01-31T09:31:12;12.17;;;3.13;;
19358;SDS011;9815;52.334;20.890;2023-01-31T09:33:42;14.03;;;4.47;;
19358;SDS011;9815;52.334;20.890;2023-01-31T09:36:12;14.17;;;3.50;;
19358;SDS011;9815;52.334;20.890;2023-01-31T09:38:41;10.60;;;3.10;;
19358;SDS011;9815;52.334;20.890;2023-01-31T09:41:13;13.10;;;3.07;;
19358;SDS011;9815;52.334;20.890;2023-01-31T09:43:47;11.07;;;3.57;;
19358;SDS011;9815;52.334;20.890;2023-01-31T09:46:23;11.83;;;3.07;;
19358;SDS011;9815;52.334;20.890;2023-01-31T09:48:53;11.60;;;3.00;;
19358;SDS011;9815;52.334;20.890;2023-01-31T09:51:24;8.37;;;2.67;;
19358;SDS011;9815;52.334;20.890;2023-01-31T09:53:53;10.37;;;3.10;;
19358;SDS011;9815;52.334;20.890;2023-01-31T09:56:23;12.37;;;3.33;;
19358;SDS011;9815;52.334;20.890;2023-01-31T09:58:58;11.33;;;3.13;;
19358;SDS011;9815;52.334;20.890;2023-01-31T10:01:35;10.17;;;3.53;;
19358;SDS011;9815;52.334;20.890;2023-01-31T10:04:16;16.13;;;3.50;;
19358;SDS011;9815;52.334;20.890;2023-01-31T10:07:00;17.37;;;3.13;;
19358;SDS011;9815;52.334;20.890;2023-01-31T10:09:33;7.73;;;2.63;;
19358;SDS011;9815;52.334;20.890;2023-01-31T10:12:05;9.60;;;3.40;;
19358;SDS011;9815;52.334;20.890;2023-01-31T10:14:39;10.47;;;3.37;;
19358;SDS011;9815;52.334;20.890;2023-01-31T10:17:12;11.80;;;3.53;;
19358;SDS011;9815;52.334;20.890;2023-01-31T10:19:46;15.17;;;3.00;;
19358;SDS011;9815;52.334;20.890;2023-01-31T10:22:20;10.67;;;3.23;;
19358;SDS011;9815;52.334;20.890;2023-01-31T10:24:56;10.10;;;3.33;;
19358;SDS011;9815;52.334;20.890;2023-01-31T10:27:37;11.70;;;2.93;;
19358;SDS011;9815;52.334;20.890;2023-01-31T10:30:12;10.83;;;3.30;;
19358;SDS011;9815;52.334;20.890;2023-01-31T10:32:44;11.63;;;3.67;;
19358;SDS011;9815;52.334;20.890;2023-01-31T10:35:18;9.87;;;2.83;;
19358;SDS011;9815;52.334;20.890;2023-01-31T10:37:52;11.27;;;3.30;;
19358;SDS011;9815;52.334;20.890;2023-01-31T10:40:24;16.40;;;4.07;;
19358;SDS011;9815;52.334;20.890;2023-01-31T10:42:59;13.93;;;3.53;;
19358;SDS011;9815;52.334;20.890;2023-01-31T10:45:37;15.83;;;3.50;;
19358;SDS011;9815;52.334;20.890;2023-01-31T10:48:10;7.30;;;2.97;;
19358;SDS011;9815;52.334;20.890;2023-01-31T10:50:44;16.80;;;3.77;;
19358;SDS011;9815;52.334;20.890;2023-01-31T10:53:30;9.53;;;3.13;;
19358;SDS011;9815;52.334;20.890;2023-01-31T10:56:12;12.90;;;3.57;;
19358;SDS011;9815;52.334;20.890;2023-01-31T10:58:46;13.20;;;2.97;;
19358;SDS011;9815;52.334;20.890;2023-01-31T11:01:14;11.00;;;2.87;;
19358;SDS011;9815;52.334;20.890;2023-01-31T11:03:45;11.67;;;3.13;;
19358;SDS011;9815;52.334;20.890;2023-01-31T11:06:16;7.87;;;3.10;;
19358;SDS011;9815;52.334;20.890;2023-01-31T11:08:46;9.73;;;3.27;;
19358;SDS011;9815;52.334;20.890;2023-01-31T11:11:17;10.10;;;3.23;;
19358;SDS011;9815;52.334;20.890;2023-01-31T11:13:56;14.77;;;3.10;;
19358;SDS011;9815;52.334;20.890;2023-01-31T11:16:26;9.37;;;3.03;;
19358;SDS011;9815;52.334;20.890;2023-01-31T11:19:00;7.93;;;3.33;;
19358;SDS011;9815;52.334;20.890;2023-01-31T11:21:31;10.30;;;3.40;;
19358;SDS011;9815;52.334;20.890;2023-01-31T11:24:02;5.57;;;3.00;;
19358;SDS011;9815;52.334;20.890;2023-01-31T11:26:33;6.93;;;3.00;;
19358;SDS011;9815;52.334;20.890;2023-01-31T11:29:06;11.97;;;2.97;;
19358;SDS011;9815;52.334;20.890;2023-01-31T11:31:41;7.73;;;2.90;;
19358;SDS011;9815;52.334;20.890;2023-01-31T11:34:21;13.93;;;3.37;;
19358;SDS011;9815;52.334;20.890;2023-01-31T11:36:50;11.50;;;3.33;;
19358;SDS011;9815;52.334;20.890;2023-01-31T11:39:24;7.97;;;3.03;;
19358;SDS011;9815;52.334;20.890;2023-01-31T11:41:57;9.47;;;3.20;;
19358;SDS011;9815;52.334;20.890;2023-01-31T11:44:32;9.80;;;2.80;;
19358;SDS011;9815;52.334;20.890;2023-01-31T11:47:01;8.53;;;3.27;;
19358;SDS011;9815;52.334;20.890;2023-01-31T11:49:31;11.63;;;3.57;;
19358;SDS011;9815;52.334;20.890;2023-01-31T11:52:02;7.10;;;2.90;;
19358;SDS011;9815;52.334;20.890;2023-01-31T11:54:41;15.40;;;4.40;;
19358;SDS011;9815;52.334;20.890;2023-01-31T11:57:13;9.90;;;3.10;;
19358;SDS011;9815;52.334;20.890;2023-01-31T11:59:42;8.13;;;3.57;;
19358;SDS011;9815;52.334;20.890;2023-01-31T12:02:19;17.47;;;3.50;;
19358;SDS011;9815;52.334;20.890;2023-01-31T12:04:53;10.70;;;3.20;;
19358;SDS011;9815;52.334;20.890;2023-01-31T12:07:23;7.17;;;3.17;;
19358;SDS011;9815;52.334;20.890;2023-01-31T12:09:53;12.63;;;3.63;;
19358;SDS011;9815;52.334;20.890;2023-01-31T12:12:23;10.33;;;3.47;;
19358;SDS011;9815;52.334;20.890;2023-01-31T12:14:59;11.77;;;3.90;;
19358;SDS011;9815;52.334;20.890;2023-01-31T12:17:29;17.77;;;3.83;;
19358;SDS011;9815;52.334;20.890;2023-01-31T12:20:03;8.43;;;3.47;;
19358;SDS011;9815;52.334;20.890;2023-01-31T12:22:55;13.07;;;4.07;;
19358;SDS011;9815;52.334;20.890;2023-01-31T12:25:40;12.27;;;3.70;;
19358;SDS011;9815;52.334;20.890;2023-01-31T12:28:18;8.53;;;2.93;;
19358;SDS011;9815;52.334;20.890;2023-01-31T12:30:59;6.53;;;2.50;;
19358;SDS011;9815;52.334;20.890;2023-01-31T12:33:48;6.17;;;3.00;;
19358;SDS011;9815;52.334;20.890;2023-01-31T12:36:31;8.43;;;3.20;;
19358;SDS011;9815;52.334;20.890;2023-01-31T12:39:14;10.10;;;2.87;;
19358;SDS011;9815;52.334;20.890;2023-01-31T12:41:58;10.77;;;2.87;;
19358;SDS011;9815;52.334;20.890;2023-01-31T12:44:40;9.03;;;2.93;;
19358;SDS011;9815;52.334;20.890;2023-01-31T12:47:17;9.80;;;3.77;;
19358;SDS011;9815;52.334;20.890;2023-01-31T12:50:16;8.87;;;3.37;;
19358;SDS011;9815;52.334;20.890;2023-01-31T12:53:18;11.47;;;3.83;;
19358;SDS011;9815;52.334;20.890;2023-01-31T12:56:09;11.80;;;2.93;;
19358;SDS011;9815;52.334;20.890;2023-01-31T12:58:50;6.33;;;2.50;;
19358;SDS011;9815;52.334;20.890;2023-01-31T13:01:42;13.27;;;3.40;;
19358;SDS011;9815;52.334;20.890;2023-01-31T13:07:11;8.47;;;2.60;;
19358;SDS011;9815;52.334;20.890;2023-01-31T13:09:44;7.37;;;2.80;;
19358;SDS011;9815;52.334;20.890;2023-01-31T13:12:14;7.97;;;2.80;;
19358;SDS011;9815;52.334;20.890;2023-01-31T13:14:47;12.33;;;3.30;;
19358;SDS011;9815;52.334;20.890;2023-01-31T13:17:21;17.53;;;3.83;;
19358;SDS011;9815;52.334;20.890;2023-01-31T13:19:53;9.37;;;3.07;;
19358;SDS011;9815;52.334;20.890;2023-01-31T13:22:26;8.30;;;3.30;;
19358;SDS011;9815;52.334;20.890;2023-01-31T13:24:58;7.83;;;3.03;;
19358;SDS011;9815;52.334;20.890;2023-01-31T13:27:33;14.87;;;2.93;;
19358;SDS011;9815;52.334;20.890;2023-01-31T13:30:10;7.40;;;2.80;;
19358;SDS011;9815;52.334;20.890;2023-01-31T13:32:44;10.93;;;2.80;;
19358;SDS011;9815;52.334;20.890;2023-01-31T13:35:17;7.00;;;2.60;;
19358;SDS011;9815;52.334;20.890;2023-01-31T13:37:50;8.70;;;3.07;;
19358;SDS011;9815;52.334;20.890;2023-01-31T13:40:23;7.13;;;3.00;;
19358;SDS011;9815;52.334;20.890;2023-01-31T13:42:54;14.37;;;3.53;;
19358;SDS011;9815;52.334;20.890;2023-01-31T13:45:28;9.13;;;3.73;;
19358;SDS011;9815;52.334;20.890;2023-01-31T13:48:00;12.10;;;3.63;;
19358;SDS011;9815;52.334;20.890;2023-01-31T13:50:33;14.63;;;3.80;;
19358;SDS011;9815;52.334;20.890;2023-01-31T13:53:06;15.77;;;4.20;;
19358;SDS011;9815;52.334;20.890;2023-01-31T13:55:41;9.37;;;3.43;;
19358;SDS011;9815;52.334;20.890;2023-01-31T13:58:14;10.87;;;3.57;;
19358;SDS011;9815;52.334;20.890;2023-01-31T14:00:47;10.67;;;2.93;;
19358;SDS011;9815;52.334;20.890;2023-01-31T14:03:17;5.97;;;3.17;;
19358;SDS011;9815;52.334;20.890;2023-01-31T14:05:51;9.13;;;3.60;;
19358;SDS011;9815;52.334;20.890;2023-01-31T14:08:27;14.27;;;3.53;;
19358;SDS011;9815;52.334;20.890;2023-01-31T14:11:32;9.07;;;3.10;;
19358;SDS011;9815;52.334;20.890;2023-01-31T14:14:09;10.20;;;4.20;;
19358;SDS011;9815;52.334;20.890;2023-01-31T14:16:49;8.80;;;3.30;;
19358;SDS011;9815;52.334;20.890;2023-01-31T14:22:35;8.30;;;3.47;;
19358;SDS011;9815;52.334;20.890;2023-01-31T14:25:09;13.97;;;3.57;;
19358;SDS011;9815;52.334;20.890;2023-01-31T14:27:43;10.83;;;4.20;;
19358;SDS011;9815;52.334;20.890;2023-01-31T14:30:32;14.90;;;4.20;;
19358;SDS011;9815;52.334;20.890;2023-01-31T14:33:05;7.43;;;3.90;;
19358;SDS011;9815;52.334;20.890;2023-01-31T14:35:46;13.47;;;5.60;;
19358;SDS011;9815;52.334;20.890;2023-01-31T14:38:47;10.77;;;4.63;;
19358;SDS011;9815;52.334;20.890;2023-01-31T14:41:48;14.30;;;4.87;;
19358;SDS011;9815;52.334;20.890;2023-01-31T14:44:27;15.17;;;4.70;;
19358;SDS011;9815;52.334;20.890;2023-01-31T14:47:07;11.00;;;4.63;;
19358;SDS011;9815;52.334;20.890;2023-01-31T14:50:05;9.87;;;4.57;;
19358;SDS011;9815;52.334;20.890;2023-01-31T14:52:53;17.30;;;5.57;;
19358;SDS011;9815;52.334;20.890;2023-01-31T14:55:36;18.03;;;6.53;;
19358;SDS011;9815;52.334;20.890;2023-01-31T14:58:16;14.70;;;5.17;;
19358;SDS011;9815;52.334;20.890;2023-01-31T15:00:47;12.47;;;6.50;;
19358;SDS011;9815;52.334;20.890;2023-01-31T15:03:18;14.07;;;5.40;;
19358;SDS011;9815;52.334;20.890;2023-01-31T15:05:51;22.57;;;7.10;;
19358;SDS011;9815;52.334;20.890;2023-01-31T15:11:12;17.93;;;7.80;;
19358;SDS011;9815;52.334;20.890;2023-01-31T15:17:02;15.63;;;6.33;;
19358;SDS011;9815;52.334;20.890;2023-01-31T15:19:54;15.90;;;6.17;;
19358;SDS011;9815;52.334;20.890;2023-01-31T15:22:30;15.87;;;4.90;;
19358;SDS011;9815;52.334;20.890;2023-01-31T15:25:06;12.97;;;5.33;;